Terminal Aerodrome Forecast
Issued by NWS

Home | Current Version | Previous Version | Text Only | Print | Product List | Glossary On
Versions: 1 2 3 4 5 6 7 8 9 10 11 12 13 14 15 16 17 18 19 20 21 22 23 24 25 26
597
FTUS46 KMTR 171724
TAFSFO
TAF
KSFO 171724Z 1718/1824 35003KT P6SM SKC
     FM172000 30005KT P6SM FEW200
     FM180000 29012KT P6SM SCT008 BKN150
     FM180600 29014KT P6SM BKN014
     FM181700 29017G22KT P6SM SCT015 BKN200=

USA.gov is the U.S. government's official web portal to all federal, state and local government web resources and services.